Station Historical Data
Daily Summary for March 27, 2017 Units:  English    Metric   Both
Next Day »
Daily Weekly Monthly Yearly Custom
  High: Low: Average:
Temperature: 50.3 °F 40.8 °F 44.5 °F
Dew Point: 43.6 °F 38.4 °F 41.1 °F
Humidity: 91% 69% 88%
Wind Speed: 11.0mph 0.0mph 1.5mph
Wind Gust: 17.0mph - -
Wind- - WSW
Pressure: 30.30 in 30.10 in -
Precipitation: 0.00 in    
Historical Graphs
 
 
Tabular Data for March 27, 2017
Time Temperature Dew Point Pressure Wind Wind Speed Wind Gust Humidity Rainfall Rate (Hourly) solar Conditions
00:01 42.5 °F 39.8 °F 30.10 in SE 8.0 mph 10.0 mph 90% 0.08 in 0.00 W/m2
00:06 42.5 °F 39.8 °F 30.10 in South 9.0 mph 9.0 mph 90% 0.06 in 0.00 W/m2
00:11 42.5 °F 39.8 °F 30.10 in Calm     90% 0.19 in 0.00 W/m2
00:16 42.5 °F 39.8 °F 30.10 in SE 2.0 mph 8.0 mph 90% 0.07 in 0.00 W/m2
00:21 42.5 °F 39.8 °F 30.10 in SSE 8.0 mph 8.0 mph 90% 0.05 in 0.00 W/m2
00:26 42.5 °F 39.8 °F 30.10 in SSE 7.0 mph 10.0 mph 90% 0.05 in 0.00 W/m2
00:31 42.6 °F 39.9 °F 30.10 in SSE 5.0 mph 8.0 mph 90% 0.05 in 0.00 W/m2
00:36 42.6 °F 39.9 °F 30.10 in SSE 6.0 mph 9.0 mph 90% 0.21 in 0.00 W/m2
00:41 42.7 °F 40.0 °F 30.10 in Calm     90% 0.15 in 0.00 W/m2
00:46 42.7 °F 40.0 °F 30.10 in SSE 10.0 mph 10.0 mph 90% 0.19 in 0.00 W/m2
00:52 42.8 °F 40.1 °F 30.10 in SE 4.0 mph 9.0 mph 90% 0.07 in 0.00 W/m2
00:57 42.9 °F 40.2 °F 30.10 in Calm     90% 0.07 in 0.00 W/m2
01:02 42.9 °F 40.2 °F 30.10 in Calm     90% 0.06 in 0.00 W/m2
01:07 42.9 °F 40.2 °F 30.10 in Calm     90% 0.04 in 0.00 W/m2
01:12 43.0 °F 40.3 °F 30.10 in Calm     90% 0.26 in 0.00 W/m2
01:17 43.0 °F 40.3 °F 30.11 in Calm     90% 0.12 in 0.00 W/m2
01:22 43.1 °F 40.7 °F 30.11 in Calm     91% 0.06 in 0.00 W/m2
01:27 43.2 °F 40.8 °F 30.11 in SSE 7.0 mph 10.0 mph 91% 0.04 in 0.00 W/m2
01:32 43.2 °F 40.8 °F 30.11 in South 7.0 mph 9.0 mph 91% 0.00 in 0.00 W/m2
01:34 43.2 °F 40.8 °F 30.11 in SSW 3.0 mph 9.0 mph 91% 0.00 in 0.00 W/m2
01:39 43.3 °F 40.8 °F 30.11 in Calm   12.0 mph 91% 0.00 in 0.00 W/m2
01:44 43.3 °F 40.8 °F 30.11 in South 2.0 mph 13.0 mph 91% 0.00 in 0.00 W/m2
01:49 43.4 °F 41.0 °F 30.11 in Calm   9.0 mph 91% 0.00 in 0.00 W/m2
01:54 43.4 °F 41.0 °F 30.11 in Calm     91% 0.00 in 0.00 W/m2
01:59 43.5 °F 40.8 °F 30.11 in Calm     90% 0.00 in 0.00 W/m2
02:04 43.5 °F 40.8 °F 30.12 in Calm     90% 0.00 in 0.00 W/m2
02:09 43.6 °F 40.9 °F 30.12 in Calm     90% 0.00 in 0.00 W/m2
02:14 43.6 °F 40.9 °F 30.11 in Calm     90% 0.00 in 0.00 W/m2
02:19 43.7 °F 41.0 °F 30.12 in Calm     90% 0.00 in 0.00 W/m2
02:24 43.7 °F 41.0 °F 30.12 in Calm     90% 0.00 in 0.00 W/m2
02:30 43.7 °F 41.0 °F 30.12 in Calm     90% 0.00 in 0.00 W/m2
02:35 43.8 °F 41.3 °F 30.12 in Calm     91% 0.00 in 0.00 W/m2
02:40 43.8 °F 41.3 °F 30.12 in Calm     91% 0.00 in 0.00 W/m2
02:45 43.8 °F 41.3 °F 30.11 in Calm     91% 0.00 in 0.00 W/m2
02:50 43.9 °F 41.5 °F 30.11 in Calm     91% 0.00 in 0.00 W/m2
02:55 43.9 °F 41.5 °F 30.11 in Calm     91% 0.00 in 0.00 W/m2
03:00 43.9 °F 41.5 °F 30.11 in Calm     91% 0.00 in 0.00 W/m2
03:05 43.9 °F 41.5 °F 30.11 in Calm     91% 0.00 in 0.00 W/m2
03:10 43.9 °F 41.5 °F 30.12 in Calm     91% 0.00 in 0.00 W/m2
03:15 43.9 °F 41.5 °F 30.11 in Calm   11.0 mph 91% 0.00 in 0.00 W/m2
03:20 43.9 °F 41.5 °F 30.11 in Calm     91% 0.00 in 0.00 W/m2
03:25 43.9 °F 41.5 °F 30.12 in Calm     91% 0.00 in 0.00 W/m2
03:30 43.9 °F 41.5 °F 30.11 in Calm     91% 0.22 in 0.00 W/m2
03:35 43.8 °F 41.3 °F 30.12 in Calm     91% 0.18 in 0.00 W/m2
03:40 43.8 °F 41.3 °F 30.12 in South 5.0 mph 6.0 mph 91% 0.13 in 0.00 W/m2
03:45 43.8 °F 41.3 °F 30.11 in Calm   5.0 mph 91% 0.06 in 0.00 W/m2
03:50 43.8 °F 41.3 °F 30.11 in Calm   6.0 mph 91% 0.04 in 0.00 W/m2
03:55 43.8 °F 41.3 °F 30.11 in Calm   7.0 mph 91% 0.00 in 0.00 W/m2
04:00 43.7 °F 41.2 °F 30.11 in Calm   7.0 mph 91% 0.00 in 0.00 W/m2
04:05 43.7 °F 41.2 °F 30.11 in Calm   4.0 mph 91% 0.00 in 0.00 W/m2
04:10 43.7 °F 41.2 °F 30.11 in Calm   7.0 mph 91% 0.00 in 0.00 W/m2
04:15 43.7 °F 41.2 °F 30.11 in Calm   5.0 mph 91% 0.00 in 0.00 W/m2
04:20 43.7 °F 41.2 °F 30.11 in Calm     91% 0.00 in 0.00 W/m2
04:25 43.7 °F 41.2 °F 30.11 in Calm   4.0 mph 91% 0.00 in 0.00 W/m2
04:30 43.7 °F 41.2 °F 30.12 in Calm   2.0 mph 91% 0.00 in 0.00 W/m2
04:35 43.6 °F 41.2 °F 30.12 in Calm   7.0 mph 91% 0.00 in 0.00 W/m2
04:36 43.7 °F 41.2 °F 30.12 in Calm   6.0 mph 91% 0.00 in 0.00 W/m2
04:41 43.6 °F 41.2 °F 30.12 in Calm     91% 0.00 in 0.00 W/m2
04:46 43.6 °F 41.2 °F 30.13 in Calm     91% 0.00 in 0.00 W/m2
04:51 43.5 °F 41.0 °F 30.13 in Calm     91% 0.00 in 0.00 W/m2
04:57 43.4 °F 41.0 °F 30.14 in Calm     91% 0.00 in 0.00 W/m2
05:02 43.4 °F 41.0 °F 30.14 in Calm     91% 0.00 in 0.00 W/m2
05:07 43.4 °F 41.0 °F 30.14 in Calm     91% 0.00 in 0.00 W/m2
05:12 43.3 °F 40.8 °F 30.14 in Calm   5.0 mph 91% 0.00 in 0.00 W/m2
05:17 43.3 °F 40.8 °F 30.14 in Calm     91% 0.00 in 0.00 W/m2
05:22 43.2 °F 40.8 °F 30.14 in Calm     91% 0.00 in 0.00 W/m2
05:27 43.2 °F 40.8 °F 30.15 in Calm     91% 0.00 in 0.00 W/m2
05:32 43.2 °F 40.8 °F 30.14 in Calm     91% 0.00 in 0.00 W/m2
05:37 43.2 °F 40.8 °F 30.15 in Calm     91% 0.00 in 0.00 W/m2
05:42 43.1 °F 40.7 °F 30.15 in Calm     91% 0.00 in 0.00 W/m2
05:47 43.1 °F 40.7 °F 30.14 in Calm     91% 0.00 in 0.00 W/m2
05:52 43.1 °F 40.7 °F 30.14 in SSW 4.0 mph 6.0 mph 91% 0.00 in 0.00 W/m2
05:57 43.1 °F 40.7 °F 30.14 in Calm   6.0 mph 91% 0.00 in 0.00 W/m2
06:02 43.1 °F 40.7 °F 30.14 in Calm     91% 0.00 in 0.00 W/m2
06:07 43.1 °F 40.7 °F 30.14 in Calm     91% 0.00 in 0.00 W/m2
06:12 43.1 °F 40.7 °F 30.15 in Calm     91% 0.00 in 0.00 W/m2
06:17 43.1 °F 40.7 °F 30.15 in Calm     91% 0.00 in 0.00 W/m2
06:22 43.1 °F 40.7 °F 30.15 in Calm     91% 0.00 in 0.00 W/m2
06:27 43.1 °F 40.7 °F 30.16 in Calm     91% 0.00 in 0.00 W/m2
06:32 43.0 °F 40.6 °F 30.16 in Calm     91% 0.00 in 0.00 W/m2
06:37 43.0 °F 40.6 °F 30.16 in Calm     91% 0.00 in 0.00 W/m2
06:42 42.9 °F 40.5 °F 30.16 in Calm     91% 0.00 in 0.00 W/m2
06:47 42.9 °F 40.5 °F 30.16 in Calm     91% 0.00 in 0.00 W/m2
06:52 42.8 °F 40.4 °F 30.17 in Calm     91% 0.00 in 0.00 W/m2
06:57 42.8 °F 40.4 °F 30.17 in Calm     91% 0.00 in 0.00 W/m2
07:02 42.8 °F 40.4 °F 30.17 in Calm     91% 0.00 in 0.00 W/m2
07:07 42.7 °F 40.3 °F 30.17 in Calm     91% 0.00 in 0.00 W/m2
07:12 42.7 °F 40.3 °F 30.17 in Calm     91% 0.00 in 5.00 W/m2
07:17 42.5 °F 40.1 °F 30.18 in Calm     91% 0.00 in 0.00 W/m2
07:22 42.4 °F 40.0 °F 30.19 in NNW 1.0 mph 7.0 mph 91% 0.00 in 0.00 W/m2
07:27 42.1 °F 39.7 °F 30.19 in NE 3.0 mph 4.0 mph 91% 0.20 in 5.00 W/m2
07:32 41.8 °F 39.4 °F 30.19 in Calm     91% 0.07 in 7.00 W/m2
07:37 41.4 °F 39.0 °F 30.18 in Calm     91% 0.06 in 9.00 W/m2
07:42 41.1 °F 38.7 °F 30.18 in Calm     91% 0.06 in 12.00 W/m2
07:47 40.9 °F 38.5 °F 30.18 in Calm     91% 0.05 in 18.00 W/m2
07:52 40.9 °F 38.5 °F 30.19 in Calm     91% 0.00 in 30.00 W/m2
07:57 40.8 °F 38.4 °F 30.19 in Calm     91% 0.00 in 76.00 W/m2
08:02 40.8 °F 38.4 °F 30.19 in Calm     91% 0.00 in 58.00 W/m2
08:07 40.8 °F 38.4 °F 30.19 in Calm     91% 0.00 in 171.00 W/m2
08:12 40.8 °F 38.4 °F 30.20 in Calm     91% 0.00 in 155.00 W/m2
08:17 40.8 °F 38.4 °F 30.20 in Calm     91% 0.00 in 209.00 W/m2
08:22 40.8 °F 38.4 °F 30.20 in Calm     91% 0.00 in 220.00 W/m2
08:27 40.9 °F 38.5 °F 30.20 in Calm     91% 0.00 in 253.00 W/m2
08:32 41.0 °F 38.6 °F 30.20 in Calm     91% 0.00 in 113.00 W/m2
08:37 41.0 °F 38.6 °F 30.20 in Calm     91% 0.00 in 248.00 W/m2
08:42 41.1 °F 38.7 °F 30.20 in Calm     91% 0.00 in 438.00 W/m2
08:47 41.2 °F 38.8 °F 30.20 in Calm     91% 0.00 in 459.00 W/m2
08:52 41.4 °F 39.0 °F 30.20 in Calm     91% 0.00 in 207.00 W/m2
08:57 41.9 °F 39.5 °F 30.21 in Calm     91% 0.00 in 88.00 W/m2
09:02 42.4 °F 40.0 °F 30.22 in Calm     91% 0.00 in 60.00 W/m2
09:07 42.4 °F 40.0 °F 30.22 in Calm     91% 0.00 in 260.00 W/m2
09:12 42.5 °F 40.1 °F 30.22 in Calm     91% 0.00 in 253.00 W/m2
09:17 42.5 °F 40.1 °F 30.22 in Calm     91% 0.00 in 120.00 W/m2
09:22 42.5 °F 40.1 °F 30.22 in Calm     91% 0.00 in 236.00 W/m2
09:27 42.5 °F 40.1 °F 30.22 in Calm     91% 0.00 in 520.00 W/m2
09:28 42.5 °F 40.1 °F 30.22 in Calm     91% 0.00 in 545.00 W/m2
09:33 42.6 °F 40.2 °F 30.22 in Calm     91% 0.00 in 575.00 W/m2
09:38 42.6 °F 40.2 °F 30.21 in Calm     91% 0.00 in 541.00 W/m2
09:43 42.7 °F 40.3 °F 30.22 in Calm     91% 0.00 in 566.00 W/m2
09:48 42.7 °F 40.3 °F 30.21 in Calm     91% 0.00 in 582.00 W/m2
09:53 42.8 °F 40.4 °F 30.21 in Calm     91% 0.00 in 585.00 W/m2
09:58 42.7 °F 40.3 °F 30.22 in NNE 1.0 mph 3.0 mph 91% 0.00 in 605.00 W/m2
10:03 42.8 °F 40.4 °F 30.22 in North 3.0 mph 4.0 mph 91% 0.00 in 608.00 W/m2
10:08 43.0 °F 40.6 °F 30.22 in North 1.0 mph 2.0 mph 91% 0.00 in 624.00 W/m2
10:13 43.0 °F 40.6 °F 30.22 in North 3.0 mph 5.0 mph 91% 0.00 in 638.00 W/m2
10:18 43.0 °F 40.6 °F 30.22 in Calm   1.0 mph 91% 0.00 in 657.00 W/m2
10:23 43.3 °F 40.8 °F 30.22 in NNW 4.0 mph 6.0 mph 91% 0.00 in 680.00 W/m2
10:28 43.2 °F 40.8 °F 30.22 in NNW 8.0 mph 10.0 mph 91% 0.00 in 696.00 W/m2
10:33 43.2 °F 40.8 °F 30.23 in NNW 5.0 mph 6.0 mph 91% 0.00 in 710.00 W/m2
10:38 43.4 °F 41.0 °F 30.23 in Calm   7.0 mph 91% 0.00 in 705.00 W/m2
10:43 43.5 °F 41.0 °F 30.22 in North 2.0 mph 6.0 mph 91% 0.00 in 708.00 W/m2
10:48 43.8 °F 41.3 °F 30.22 in NNW 1.0 mph 4.0 mph 91% 0.00 in 715.00 W/m2
10:53 43.8 °F 41.3 °F 30.23 in NW 1.0 mph 6.0 mph 91% 0.00 in 737.00 W/m2
10:58 43.7 °F 41.2 °F 30.23 in Calm   5.0 mph 91% 0.00 in 745.00 W/m2
11:03 44.0 °F 41.5 °F 30.23 in NW 2.0 mph 3.0 mph 91% 0.00 in 756.00 W/m2
11:08 44.1 °F 41.7 °F 30.23 in Calm   2.0 mph 91% 0.00 in 788.00 W/m2
11:13 44.2 °F 41.5 °F 30.23 in NW 4.0 mph 6.0 mph 90% 0.00 in 803.00 W/m2
11:18 44.5 °F 42.0 °F 30.23 in Calm   7.0 mph 91% 0.00 in 849.00 W/m2
11:23 44.8 °F 42.0 °F 30.23 in Calm   8.0 mph 90% 0.00 in 865.00 W/m2
11:28 45.1 °F 41.5 °F 30.23 in Calm   5.0 mph 87% 0.00 in 942.00 W/m2
11:33 45.6 °F 42.3 °F 30.23 in West 2.0 mph 7.0 mph 88% 0.00 in 158.00 W/m2
11:38 45.7 °F 42.1 °F 30.23 in Calm   6.0 mph 87% 0.00 in 916.00 W/m2
11:43 45.9 °F 42.5 °F 30.23 in NNW 1.0 mph 4.0 mph 88% 0.00 in 882.00 W/m2
11:48 46.0 °F 41.8 °F 30.23 in Calm   5.0 mph 85% 0.00 in 353.00 W/m2
11:53 46.2 °F 42.0 °F 30.24 in NW 4.0 mph 9.0 mph 85% 0.00 in 151.00 W/m2
11:58 46.2 °F 41.6 °F 30.23 in Calm   8.0 mph 84% 0.00 in 970.00 W/m2
12:03 46.5 °F 42.2 °F 30.23 in NW 2.0 mph 6.0 mph 85% 0.00 in 378.00 W/m2
12:08 46.7 °F 42.1 °F 30.24 in Calm   7.0 mph 84% 0.00 in 390.00 W/m2
12:13 46.7 °F 40.9 °F 30.24 in WNW 3.0 mph 8.0 mph 80% 0.00 in 334.00 W/m2
12:18 46.8 °F 41.3 °F 30.24 in WNW 3.0 mph 5.0 mph 81% 0.00 in 1113.00 W/m2
12:24 47.2 °F 42.0 °F 30.24 in Calm   7.0 mph 82% 0.00 in 378.00 W/m2
12:29 47.4 °F 41.5 °F 30.23 in Calm   9.0 mph 80% 0.00 in 327.00 W/m2
12:32 47.7 °F 42.2 °F 30.23 in Calm   6.0 mph 81% 0.00 in 359.00 W/m2
12:33 47.7 °F 42.2 °F 30.23 in West 7.0 mph 7.0 mph 81% 0.00 in 359.00 W/m2
12:36 47.9 °F 42.7 °F 30.23 in West 4.0 mph 4.0 mph 82% 0.00 in 299.00 W/m2
12:37 47.9 °F 42.7 °F 30.23 in WNW 1.0 mph 7.0 mph 82% 0.00 in 287.00 W/m2
12:38 47.9 °F 43.0 °F 30.23 in Calm   7.0 mph 83% 0.00 in 272.00 W/m2
12:39 47.9 °F 42.4 °F 30.23 in West 4.0 mph 7.0 mph 81% 0.00 in 241.00 W/m2
12:44 47.8 °F 41.9 °F 30.23 in WNW 2.0 mph 4.0 mph 80% 0.00 in 204.00 W/m2
12:47 47.8 °F 41.0 °F 30.23 in NW 2.0 mph 7.0 mph 77% 0.00 in 1069.00 W/m2
12:51 47.8 °F 40.6 °F 30.23 in Calm     76% 0.00 in 250.00 W/m2
12:56 47.8 °F 41.3 °F 30.23 in WNW 5.0 mph 8.0 mph 78% 0.00 in 197.00 W/m2
12:58 47.8 °F 40.6 °F 30.23 in West 1.0 mph 9.0 mph 76% 0.00 in 202.00 W/m2
13:00 47.8 °F 40.6 °F 30.23 in WNW 2.0 mph 9.0 mph 76% 0.00 in 211.00 W/m2
13:05 47.7 °F 41.2 °F 30.23 in WNW 1.0 mph 10.0 mph 78% 0.00 in 981.00 W/m2
13:10 48.0 °F 41.2 °F 30.23 in Calm   4.0 mph 77% 0.00 in 1053.00 W/m2
13:15 48.6 °F 42.1 °F 30.23 in WNW 7.0 mph 11.0 mph 78% 0.00 in 223.00 W/m2
13:20 48.7 °F 41.1 °F 30.23 in Calm   10.0 mph 75% 0.00 in 311.00 W/m2
13:25 48.7 °F 41.5 °F 30.23 in Calm   7.0 mph 76% 0.00 in 1195.00 W/m2
13:30 48.8 °F 41.6 °F 30.24 in Calm   5.0 mph 76% 0.00 in 330.00 W/m2
13:35 48.8 °F 42.6 °F 30.24 in WNW 2.0 mph 4.0 mph 79% 0.00 in 132.00 W/m2
13:40 48.5 °F 42.3 °F 30.24 in Calm   8.0 mph 79% 0.00 in 200.00 W/m2
13:45 48.0 °F 42.5 °F 30.25 in Calm   5.0 mph 81% 0.00 in 146.00 W/m2
13:50 47.6 °F 42.1 °F 30.25 in Calm   3.0 mph 81% 0.00 in 93.00 W/m2
13:55 47.4 °F 42.2 °F 30.24 in Calm     82% 0.00 in 178.00 W/m2
14:00 47.2 °F 42.9 °F 30.24 in Calm     85% 0.00 in 420.00 W/m2
14:05 47.3 °F 43.3 °F 30.24 in Calm   2.0 mph 86% 0.00 in 385.00 W/m2
14:10 47.3 °F 42.4 °F 30.23 in NW 1.0 mph 13.0 mph 83% 0.00 in 248.00 W/m2
14:15 47.5 °F 42.0 °F 30.24 in WNW 1.0 mph 11.0 mph 81% 0.00 in 714.00 W/m2
14:20 47.9 °F 41.7 °F 30.23 in Calm   14.0 mph 79% 0.00 in 780.00 W/m2
14:25 48.4 °F 41.9 °F 30.24 in WNW 1.0 mph 13.0 mph 78% 0.00 in 944.00 W/m2
14:31 49.0 °F 41.8 °F 30.24 in Calm   13.0 mph 76% 0.00 in 503.00 W/m2
14:36 49.4 °F 41.5 °F 30.24 in WNW 2.0 mph 10.0 mph 74% 0.00 in 935.00 W/m2
14:41 49.6 °F 41.7 °F 30.23 in Calm   11.0 mph 74% 0.00 in 925.00 W/m2
14:46 50.0 °F 41.7 °F 30.24 in WNW 1.0 mph 13.0 mph 73% 0.00 in 946.00 W/m2
14:51 50.2 °F 41.5 °F 30.24 in Calm   14.0 mph 72% 0.00 in 1037.00 W/m2
14:56 50.3 °F 40.9 °F 30.24 in NW 2.0 mph 17.0 mph 70% 0.00 in 197.00 W/m2
15:01 49.8 °F 40.0 °F 30.25 in WNW 1.0 mph 12.0 mph 69% 0.00 in 169.00 W/m2
15:11 48.8 °F 42.3 °F 30.25 in Calm   12.0 mph 78% 0.00 in 105.00 W/m2
15:16 48.0 °F 42.5 °F 30.25 in Calm   14.0 mph 81% 0.00 in 95.00 W/m2
15:21 46.8 °F 42.2 °F 30.26 in NNE 4.0 mph 16.0 mph 84% 0.14 in 155.00 W/m2
15:26 46.0 °F 41.8 °F 30.25 in Calm   5.0 mph 85% 0.18 in 162.00 W/m2
15:31 45.4 °F 41.8 °F 30.25 in Calm   6.0 mph 87% 0.09 in 162.00 W/m2
15:36 45.1 °F 41.8 °F 30.25 in Calm   6.0 mph 88% 0.09 in 225.00 W/m2
15:41 44.9 °F 41.9 °F 30.25 in Calm     89% 0.10 in 163.00 W/m2
15:46 44.8 °F 41.8 °F 30.24 in Calm   2.0 mph 89% 0.06 in 163.00 W/m2
15:51 44.7 °F 41.7 °F 30.25 in Calm     89% 0.06 in 257.00 W/m2
16:01 44.8 °F 42.0 °F 30.25 in NNW 4.0 mph 4.0 mph 90% 0.04 in 571.00 W/m2
16:06 44.9 °F 42.2 °F 30.25 in NNW 3.0 mph 3.0 mph 90% 0.00 in 568.00 W/m2
16:11 45.1 °F 42.3 °F 30.24 in North 6.0 mph 8.0 mph 90% 0.00 in 563.00 W/m2
16:16 45.4 °F 42.6 °F 30.24 in NNW 2.0 mph 7.0 mph 90% 0.00 in 554.00 W/m2
16:21 45.7 °F 42.9 °F 30.24 in NNW 5.0 mph 10.0 mph 90% 0.00 in 541.00 W/m2
16:26 45.8 °F 43.0 °F 30.24 in Calm     90% 0.00 in 529.00 W/m2
16:31 46.2 °F 43.4 °F 30.24 in NNW 7.0 mph 7.0 mph 90% 0.00 in 529.00 W/m2
16:36 46.3 °F 43.5 °F 30.24 in NNW 8.0 mph 8.0 mph 90% 0.00 in 522.00 W/m2
16:41 46.4 °F 43.6 °F 30.24 in NW 4.0 mph 9.0 mph 90% 0.00 in 485.00 W/m2
16:46 46.4 °F 43.3 °F 30.24 in NW 7.0 mph 7.0 mph 89% 0.00 in 476.00 W/m2
16:47 46.5 °F 43.4 °F 30.24 in NNW 4.0 mph 9.0 mph 89% 0.00 in 473.00 W/m2
16:52 46.6 °F 43.5 °F 30.24 in Calm   2.0 mph 89% 0.00 in 457.00 W/m2
16:57 46.5 °F 42.8 °F 30.24 in NNW 4.0 mph 4.0 mph 87% 0.00 in 445.00 W/m2
17:02 46.7 °F 42.7 °F 30.23 in NW 5.0 mph 6.0 mph 86% 0.00 in 427.00 W/m2
17:07 47.1 °F 43.4 °F 30.23 in Calm   1.0 mph 87% 0.00 in 408.00 W/m2
17:17 47.2 °F 42.3 °F 30.23 in Calm   7.0 mph 83% 0.00 in 341.00 W/m2
17:22 47.4 °F 42.8 °F 30.23 in North 5.0 mph 8.0 mph 84% 0.00 in 357.00 W/m2
17:27 47.6 °F 43.3 °F 30.23 in NNW 4.0 mph 6.0 mph 85% 0.00 in 343.00 W/m2
17:32 47.7 °F 43.4 °F 30.23 in NNW 1.0 mph 8.0 mph 85% 0.00 in 322.00 W/m2
17:37 47.7 °F 43.1 °F 30.23 in NW 3.0 mph 6.0 mph 84% 0.00 in 302.00 W/m2
17:42 47.9 °F 43.6 °F 30.24 in NNW 11.0 mph 13.0 mph 85% 0.00 in 285.00 W/m2
17:47 47.9 °F 42.7 °F 30.24 in NNW 8.0 mph 8.0 mph 82% 0.00 in 265.00 W/m2
17:52 48.1 °F 43.2 °F 30.24 in NNW 8.0 mph 11.0 mph 83% 0.00 in 251.00 W/m2
17:57 48.1 °F 42.5 °F 30.24 in NNW 2.0 mph 5.0 mph 81% 0.00 in 236.00 W/m2
18:02 48.1 °F 42.9 °F 30.24 in Calm   7.0 mph 82% 0.00 in 216.00 W/m2
18:07 48.1 °F 42.9 °F 30.24 in NW 11.0 mph 11.0 mph 82% 0.00 in 197.00 W/m2
18:13 48.1 °F 43.5 °F 30.24 in NNW 5.0 mph 7.0 mph 84% 0.00 in 174.00 W/m2
18:18 48.0 °F 42.8 °F 30.24 in WNW 3.0 mph 14.0 mph 82% 0.00 in 162.00 W/m2
18:23 48.0 °F 43.4 °F 30.24 in NW 1.0 mph 9.0 mph 84% 0.00 in 132.00 W/m2
18:28 47.8 °F 43.2 °F 30.24 in NNW 6.0 mph 9.0 mph 84% 0.00 in 111.00 W/m2
18:33 47.7 °F 43.4 °F 30.24 in Calm   7.0 mph 85% 0.00 in 91.00 W/m2
18:38 47.5 °F 42.6 °F 30.24 in Calm   8.0 mph 83% 0.00 in 76.00 W/m2
18:43 47.5 °F 42.9 °F 30.24 in NNW 3.0 mph 6.0 mph 84% 0.00 in 58.00 W/m2
18:48 47.4 °F 43.1 °F 30.24 in NNW 3.0 mph 7.0 mph 85% 0.00 in 46.00 W/m2
18:53 47.2 °F 42.9 °F 30.24 in Calm   6.0 mph 85% 0.00 in 32.00 W/m2
18:58 47.0 °F 42.7 °F 30.24 in Calm   6.0 mph 85% 0.00 in 21.00 W/m2
19:03 46.9 °F 42.6 °F 30.24 in Calm   5.0 mph 85% 0.00 in 16.00 W/m2
19:08 46.7 °F 42.7 °F 30.24 in NNW 1.0 mph 2.0 mph 86% 0.00 in 12.00 W/m2
19:13 46.6 °F 42.6 °F 30.25 in Calm     86% 0.00 in 9.00 W/m2
19:18 46.2 °F 42.2 °F 30.25 in Calm   5.0 mph 86% 0.00 in 5.00 W/m2
19:23 45.9 °F 42.0 °F 30.26 in Calm   5.0 mph 86% 0.00 in 5.00 W/m2
19:28 45.7 °F 41.8 °F 30.26 in Calm   6.0 mph 86% 0.00 in 0.00 W/m2
19:33 45.5 °F 41.9 °F 30.26 in Calm   8.0 mph 87% 0.00 in 0.00 W/m2
19:38 45.3 °F 41.7 °F 30.27 in NNW 4.0 mph 6.0 mph 87% 0.00 in 0.00 W/m2
19:43 45.1 °F 41.5 °F 30.26 in Calm   5.0 mph 87% 0.00 in 0.00 W/m2
19:48 44.9 °F 41.3 °F 30.26 in Calm   8.0 mph 87% 0.00 in 0.00 W/m2
19:53 44.7 °F 41.1 °F 30.26 in Calm   5.0 mph 87% 0.00 in 0.00 W/m2
19:58 44.5 °F 40.6 °F 30.26 in NNW 3.0 mph 5.0 mph 86% 0.00 in 0.00 W/m2
20:03 44.5 °F 40.9 °F 30.26 in NNW 4.0 mph 4.0 mph 87% 0.00 in 0.00 W/m2
20:08 44.5 °F 40.9 °F 30.27 in NNW 2.0 mph 7.0 mph 87% 0.00 in 0.00 W/m2
20:13 44.3 °F 41.0 °F 30.27 in North 1.0 mph 8.0 mph 88% 0.00 in 0.00 W/m2
20:18 44.2 °F 40.9 °F 30.27 in NNW 6.0 mph 9.0 mph 88% 0.00 in 0.00 W/m2
20:23 44.0 °F 40.7 °F 30.27 in North 3.0 mph 8.0 mph 88% 0.00 in 0.00 W/m2
20:28 43.9 °F 40.6 °F 30.28 in NNW 4.0 mph 8.0 mph 88% 0.00 in 0.00 W/m2
20:33 43.8 °F 40.5 °F 30.28 in NNW 2.0 mph 9.0 mph 88% 0.00 in 0.00 W/m2
20:38 43.8 °F 40.5 °F 30.28 in NNW 3.0 mph 7.0 mph 88% 0.00 in 0.00 W/m2
20:43 43.9 °F 40.6 °F 30.29 in NNW 2.0 mph 6.0 mph 88% 0.00 in 0.00 W/m2
20:48 43.8 °F 40.5 °F 30.29 in Calm   5.0 mph 88% 0.00 in 0.00 W/m2
20:53 43.8 °F 40.8 °F 30.29 in North 4.0 mph 6.0 mph 89% 0.00 in 0.00 W/m2
20:58 43.6 °F 40.3 °F 30.29 in North 1.0 mph 7.0 mph 88% 0.00 in 0.00 W/m2
21:03 43.5 °F 40.2 °F 30.30 in North 4.0 mph 9.0 mph 88% 0.00 in 0.00 W/m2
21:08 43.4 °F 40.1 °F 30.29 in North 3.0 mph 7.0 mph 88% 0.00 in 0.00 W/m2
21:13 43.4 °F 40.1 °F 30.30 in North 7.0 mph 8.0 mph 88% 0.00 in 0.00 W/m2
21:18 43.3 °F 40.0 °F 30.30 in Calm   6.0 mph 88% 0.00 in 0.00 W/m2
21:23 43.3 °F 40.0 °F 30.29 in Calm   9.0 mph 88% 0.00 in 0.00 W/m2
21:28 43.3 °F 40.3 °F 30.29 in North 5.0 mph 8.0 mph 89% 0.00 in 0.00 W/m2
21:33 43.3 °F 40.3 °F 30.29 in NNE 4.0 mph 6.0 mph 89% 0.00 in 0.00 W/m2
21:38 43.3 °F 40.3 °F 30.29 in Calm   5.0 mph 89% 0.00 in 0.00 W/m2
21:43 43.3 °F 40.0 °F 30.29 in North 8.0 mph 8.0 mph 88% 0.00 in 0.00 W/m2
21:48 43.3 °F 40.3 °F 30.30 in Calm   5.0 mph 89% 0.00 in 0.00 W/m2
21:53 43.2 °F 39.9 °F 30.29 in Calm   6.0 mph 88% 0.00 in 0.00 W/m2
21:58 43.2 °F 40.2 °F 30.29 in North 1.0 mph 8.0 mph 89% 0.00 in 0.00 W/m2
22:03 43.2 °F 40.2 °F 30.29 in Calm   5.0 mph 89% 0.00 in 0.00 W/m2
22:08 43.1 °F 40.1 °F 30.29 in Calm   5.0 mph 89% 0.00 in 0.00 W/m2
22:13 43.1 °F 40.1 °F 30.30 in North 2.0 mph 6.0 mph 89% 0.00 in 0.00 W/m2
22:18 43.1 °F 40.1 °F 30.30 in North 3.0 mph 5.0 mph 89% 0.00 in 0.00 W/m2
22:23 43.1 °F 40.1 °F 30.30 in North 5.0 mph 7.0 mph 89% 0.00 in 0.00 W/m2
22:28 43.1 °F 40.1 °F 30.30 in North 6.0 mph 7.0 mph 89% 0.00 in 0.00 W/m2
22:33 43.1 °F 40.1 °F 30.30 in North 2.0 mph 8.0 mph 89% 0.00 in 0.00 W/m2
22:38 43.1 °F 40.1 °F 30.29 in Calm   7.0 mph 89% 0.00 in 0.00 W/m2
22:43 43.1 °F 40.1 °F 30.29 in NNE 5.0 mph 7.0 mph 89% 0.00 in 0.00 W/m2
22:48 43.1 °F 39.8 °F 30.29 in Calm   6.0 mph 88% 0.00 in 0.00 W/m2
22:53 43.2 °F 40.2 °F 30.29 in Calm   6.0 mph 89% 0.00 in 0.00 W/m2
22:58 43.1 °F 40.1 °F 30.29 in Calm     89% 0.00 in 0.00 W/m2
23:03 43.1 °F 40.1 °F 30.28 in NNE 5.0 mph 5.0 mph 89% 0.00 in 0.00 W/m2
23:09 43.0 °F 40.0 °F 30.29 in NNE 3.0 mph 3.0 mph 89% 0.00 in 0.00 W/m2
23:14 42.9 °F 39.9 °F 30.29 in Calm   4.0 mph 89% 0.00 in 0.00 W/m2
23:19 42.8 °F 39.8 °F 30.29 in Calm     89% 0.00 in 0.00 W/m2
23:24 42.7 °F 39.7 °F 30.28 in Calm   4.0 mph 89% 0.00 in 0.00 W/m2
23:29 42.5 °F 39.5 °F 30.28 in NE 4.0 mph 8.0 mph 89% 0.00 in 0.00 W/m2
23:34 42.3 °F 39.3 °F 30.28 in NNE 2.0 mph 7.0 mph 89% 0.00 in 0.00 W/m2
23:39 42.2 °F 39.2 °F 30.28 in NNE 4.0 mph 8.0 mph 89% 0.00 in 0.00 W/m2
23:44 42.2 °F 39.2 °F 30.28 in NNE 7.0 mph 8.0 mph 89% 0.00 in 0.00 W/m2
23:49 42.1 °F 39.1 °F 30.28 in North 3.0 mph 8.0 mph 89% 0.00 in 0.00 W/m2
23:54 42.1 °F 39.1 °F 30.28 in NNE 2.0 mph 10.0 mph 89% 0.00 in 0.00 W/m2
23:59 42.0 °F 38.7 °F 30.28 in NNE 3.0 mph 11.0 mph 88% 0.00 in 0.00 W/m2
Foresthill Weather
 WU-history PHP script courtesy of   Juneau County Weather.
powered by Cumulus v1.9.3 (1059)
Ambient Weather VWS v14.00
Top Contact Website Map Copyright © 2007 - 2018 Foresthillweather.com Never base important decisions on this or any weather information obtained from the Internet